]idnight River — HP7399 — position and weather

sailwx.info

Track history (hours):
 
Tides and Currents Weather Stations Pressure Air Temp Water Temp Dewpoint Dewpoint Depression Visibility Wind Speed Wind Dir Waves Ship Positions

]idnight River

Last reported at 2015-Jan-27 16:30 UTC. Time now 2015-Jan-27 16:58 UTC.
Position N 18°05' W 063°05'.

Type: Ship. MMSI: 352319000.

Date/timePositionNaut miles runAvg speedWind from/ knotsBaromVisibWave heightAir tempDewpointWater temp
2015-Jan-27 16:30N 18°05' W 063°05'8 1.3
2015-Jan-27 10:18N 18°12' W 063°08'7 9.6
2015-Jan-27 09:33N 18°13' W 063°16'73 9.1
2015-Jan-27 01:32N 18°24' W 064°32'2 0.1
2015-Jan-26 02:34N 18°24' W 064°34'63 9.7
2015-Jan-25 20:04N 18°10' W 063°29'5 9.7
2015-Jan-25 19:33N 18°09' W 063°24'10 9.7
2015-Jan-25 18:31N 18°07' W 063°14'9 8.3
2015-Jan-25 17:30N 18°05' W 063°05'0 0.0
2015-Jan-25 16:25N 18°05' W 063°05'0 0.0
2015-Jan-25 15:33N 18°05' W 063°05'0 0.0
2015-Jan-25 14:33N 18°05' W 063°05'0 0.0
2015-Jan-25 13:33N 18°05' W 063°05'0 0.0
2015-Jan-25 12:32N 18°05' W 063°05'0 0.3
2015-Jan-25 11:26N 18°05' W 063°05'6 6.2
2015-Jan-25 10:33N 18°00' W 063°08'10 9.9
2015-Jan-25 09:33N 17°51' W 063°05'8 0.6
2015-Jan-24 18:32N 17°59' W 063°02'1 0.4
2015-Jan-24 15:26N 18°00' W 063°03'0 0.0
2015-Jan-24 14:32N 18°00' W 063°03'0 0.0
2015-Jan-24 13:32N 18°00' W 063°03'  
2015-Jan-19 23:25N 18°24' W 064°31'1 0.2
2015-Jan-19 16:30N 18°26' W 064°31'5 0.2
2015-Jan-18 07:15N 18°25' W 064°36'8 9.4
2015-Jan-18 06:26N 18°24' W 064°28'  
Track history (hours):
 
Tides and Currents Weather Stations Pressure Air Temp Water Temp Dewpoint Dewpoint Depression Visibility Wind Speed Wind Dir Waves Ship Positions

]idnight River

Last reported at 2015-Jan-27 16:30 UTC. Time now 2015-Jan-27 16:58 UTC.
Position N 18°05' W 063°05'.

Type: Ship. MMSI: 352319000.

Date/timePositionNaut miles runAvg speedWind from/ knotsBaromVisibWave heightAir tempDewpointWater temp
2015-Jan-27 16:30N 18°05' W 063°05'8 1.3
2015-Jan-27 10:18N 18°12' W 063°08'7 9.6
2015-Jan-27 09:33N 18°13' W 063°16'73 9.1
2015-Jan-27 01:32N 18°24' W 064°32'2 0.1
2015-Jan-26 02:34N 18°24' W 064°34'63 9.7
2015-Jan-25 20:04N 18°10' W 063°29'5 9.7
2015-Jan-25 19:33N 18°09' W 063°24'10 9.7
2015-Jan-25 18:31N 18°07' W 063°14'9 8.3
2015-Jan-25 17:30N 18°05' W 063°05'0 0.0
2015-Jan-25 16:25N 18°05' W 063°05'0 0.0
2015-Jan-25 15:33N 18°05' W 063°05'0 0.0
2015-Jan-25 14:33N 18°05' W 063°05'0 0.0
2015-Jan-25 13:33N 18°05' W 063°05'0 0.0
2015-Jan-25 12:32N 18°05' W 063°05'0 0.3
2015-Jan-25 11:26N 18°05' W 063°05'6 6.2
2015-Jan-25 10:33N 18°00' W 063°08'10 9.9
2015-Jan-25 09:33N 17°51' W 063°05'8 0.6
2015-Jan-24 18:32N 17°59' W 063°02'1 0.4
2015-Jan-24 15:26N 18°00' W 063°03'0 0.0
2015-Jan-24 14:32N 18°00' W 063°03'0 0.0
2015-Jan-24 13:32N 18°00' W 063°03'  
2015-Jan-19 23:25N 18°24' W 064°31'1 0.2
2015-Jan-19 16:30N 18°26' W 064°31'5 0.2
2015-Jan-18 07:15N 18°25' W 064°36'8 9.4
2015-Jan-18 06:26N 18°24' W 064°28'  

Dump ship's entire track history